createdAt,value
2022-10-18T00:01:12.081Z,102245.28
2022-10-18T00:04:35.315Z,102242.75
2022-10-18T00:07:56.649Z,102244.56
2022-10-18T00:11:18.295Z,102260.69
2022-10-18T00:14:39.471Z,102257.16
2022-10-18T00:18:01.152Z,102264.09
2022-10-18T00:21:26.010Z,102275.00
2022-10-18T00:24:47.560Z,102273.03
2022-10-18T00:28:09.401Z,102269.47
2022-10-18T00:31:33.150Z,102268.22
2022-10-18T00:34:54.901Z,102266.16
2022-10-18T00:38:17.645Z,102256.84
2022-10-18T00:41:39.437Z,102259.25
2022-10-18T00:45:15.863Z,102275.00
2022-10-18T00:48:37.642Z,102273.75
2022-10-18T00:52:04.701Z,102267.84
2022-10-18T00:55:28.876Z,102276.63
2022-10-18T00:58:52.105Z,102287.97
2022-10-18T01:02:15.037Z,102288.56
2022-10-18T01:05:41.466Z,102289.16
2022-10-18T01:09:18.871Z,102292.56
2022-10-18T01:12:50.062Z,102279.69
2022-10-18T01:16:21.508Z,102287.47
2022-10-18T01:20:22.357Z,102288.94
2022-10-18T01:24:16.103Z,102287.97
2022-10-18T01:27:48.293Z,102291.47
2022-10-18T01:31:14.511Z,102285.84
2022-10-18T01:34:39.967Z,102285.13
2022-10-18T01:38:06.490Z,102277.03
2022-10-18T01:41:29.406Z,102277.91
2022-10-18T01:44:53.229Z,102277.91
2022-10-18T01:48:17.666Z,102280.59
2022-10-18T01:51:39.469Z,102277.03
2022-10-18T01:55:01.924Z,102278.03
2022-10-18T01:58:32.802Z,102272.81
2022-10-18T02:02:02.612Z,102274.63
2022-10-18T02:05:32.694Z,102287.09
2022-10-18T02:08:59.918Z,102294.31
2022-10-18T02:12:23.656Z,102288.06
2022-10-18T02:15:49.617Z,102284.66
2022-10-18T02:19:15.657Z,102270.34
2022-10-18T02:22:42.414Z,102264.03
2022-10-18T02:26:04.081Z,102273.03
2022-10-18T02:29:26.163Z,102269.53
2022-10-18T02:33:10.939Z,102279.41
2022-10-18T02:36:35.850Z,102291.16
2022-10-18T02:39:58.943Z,102287.75
2022-10-18T02:43:20.334Z,102273.59
2022-10-18T02:46:42.567Z,102273.59
2022-10-18T02:50:04.078Z,102270.19
2022-10-18T02:53:25.359Z,102275.56
2022-10-18T02:56:48.069Z,102278.41
2022-10-18T03:00:11.210Z,102277.53
2022-10-18T03:03:32.817Z,102278.50
2022-10-18T03:06:54.867Z,102289.41
2022-10-18T03:10:16.658Z,102289.41
2022-10-18T03:13:39.155Z,102301.00
2022-10-18T03:17:01.022Z,102300.03
2022-10-18T03:20:22.751Z,102294.66
2022-10-18T03:23:44.335Z,102295.38
2022-10-18T03:27:06.127Z,102297.06
2022-10-18T03:30:29.409Z,102304.16
2022-10-18T03:33:50.691Z,102294.53
2022-10-18T03:37:12.097Z,102288.28
2022-10-18T03:40:33.938Z,102301.72
2022-10-18T03:43:55.762Z,102308.09
2022-10-18T03:47:18.585Z,102308.97
2022-10-18T03:50:40.000Z,102317.88
2022-10-18T03:54:01.362Z,102315.19
2022-10-18T03:57:22.545Z,102307.09
2022-10-18T04:00:43.703Z,102316.88
2022-10-18T04:04:06.465Z,102316.88
2022-10-18T04:07:28.077Z,102310.66
2022-10-18T04:10:49.231Z,102329.50
2022-10-18T04:14:11.050Z,102329.34
2022-10-18T04:17:32.618Z,102320.44
2022-10-18T04:20:55.811Z,102312.38
2022-10-18T04:24:18.593Z,102330.22
2022-10-18T04:27:40.232Z,102330.22
2022-10-18T04:31:01.709Z,102333.88
2022-10-18T04:34:23.698Z,102331.31
2022-10-18T04:37:46.501Z,102335.84
2022-10-18T04:41:07.956Z,102325.09
2022-10-18T04:44:29.423Z,102329.63
2022-10-18T04:47:51.090Z,102337.69
2022-10-18T04:51:12.886Z,102315.44
2022-10-18T04:54:35.650Z,102310.94
2022-10-18T04:57:57.265Z,102313.75
2022-10-18T05:01:19.042Z,102308.50
2022-10-18T05:04:40.455Z,102311.19
2022-10-18T05:08:01.833Z,102300.56
2022-10-18T05:11:24.704Z,102331.84
2022-10-18T05:14:46.205Z,102326.75
2022-10-18T05:18:08.131Z,102325.16
2022-10-18T05:21:29.907Z,102329.69
2022-10-18T05:24:54.510Z,102313.09
2022-10-18T05:31:59.622Z,102301.47
2022-10-18T05:35:21.595Z,102290.88
2022-10-18T05:38:45.545Z,102304.31
2022-10-18T05:42:08.209Z,102295.38
2022-10-18T05:45:31.518Z,102294.53
2022-10-18T05:48:53.276Z,102293.69
2022-10-18T05:52:17.074Z,102298.34
2022-10-18T05:55:38.397Z,102318.13
2022-10-18T05:58:59.685Z,102314.47
2022-10-18T06:02:23.055Z,102325.38
2022-10-18T06:05:44.871Z,102320.09
2022-10-18T06:09:08.171Z,102320.22
2022-10-18T06:12:30.050Z,102319.50
2022-10-18T06:15:57.335Z,102317.78
2022-10-18T06:19:20.394Z,102321.47
2022-10-18T06:22:42.234Z,102311.69
2022-10-18T06:26:06.356Z,102319.66
2022-10-18T06:29:27.981Z,102317.06
2022-10-18T06:32:49.827Z,102305.59
2022-10-18T06:36:15.661Z,102318.94
2022-10-18T06:39:37.149Z,102316.25
2022-10-18T06:43:00.608Z,102306.31
2022-10-18T06:46:27.873Z,102305.47
2022-10-18T06:49:49.204Z,102308.16
2022-10-18T06:53:14.353Z,102298.25
2022-10-18T06:56:36.666Z,102303.53
2022-10-18T07:00:42.903Z,102303.38
2022-10-18T07:04:29.512Z,102303.13
2022-10-18T07:07:54.284Z,102300.69
2022-10-18T07:11:21.449Z,102303.38
2022-10-18T07:14:42.855Z,102306.94
2022-10-18T07:18:04.185Z,102308.63
2022-10-18T07:21:27.272Z,102317.53
2022-10-18T07:24:48.887Z,102328.28
2022-10-18T07:28:12.521Z,102336.50
2022-10-18T07:31:38.686Z,102344.41
2022-10-18T07:35:00.290Z,102353.22
2022-10-18T07:38:30.150Z,102348.69
2022-10-18T07:41:51.993Z,102346.72
2022-10-18T07:45:15.431Z,102352.81
2022-10-18T07:48:37.076Z,102346.72
2022-10-18T07:51:58.773Z,102359.91
2022-10-18T07:55:20.190Z,102369.81
2022-10-18T07:58:42.121Z,102371.53
2022-10-18T08:02:04.870Z,102372.50
2022-10-18T08:05:28.613Z,102371.66
2022-10-18T08:08:50.324Z,102372.50
2022-10-18T08:12:11.894Z,102377.88
2022-10-18T08:15:34.080Z,102372.50
2022-10-18T08:19:04.730Z,102377.03
2022-10-18T08:34:14.783Z,102355.50
2022-10-18T08:38:23.619Z,102353.81
2022-10-18T08:42:08.263Z,102352.00
2022-10-18T08:46:16.110Z,102349.16
2022-10-18T08:58:46.501Z,102350.75
2022-10-18T09:02:22.312Z,102351.72
2022-10-18T09:05:51.215Z,102353.53
2022-10-18T09:09:26.680Z,102353.44
2022-10-18T09:13:18.540Z,102367.59
2022-10-18T09:16:51.327Z,102357.69
2022-10-18T09:20:23.321Z,102360.50
2022-10-18T09:23:49.346Z,102355.25
2022-10-18T09:27:17.592Z,102349.75
2022-10-18T09:30:59.537Z,102359.53
2022-10-18T09:34:32.435Z,102346.81
2022-10-18T09:38:00.723Z,102353.03
2022-10-18T09:41:27.826Z,102359.28
2022-10-18T09:44:54.639Z,102358.41
2022-10-18T09:48:22.825Z,102360.97
2022-10-18T09:51:49.621Z,102364.50
2022-10-18T09:55:20.568Z,102363.78
2022-10-18T09:58:46.451Z,102361.97
2022-10-18T10:02:10.718Z,102363.66
2022-10-18T10:05:32.350Z,102360.09
2022-10-18T10:09:01.731Z,102344.84
2022-10-18T10:12:29.195Z,102337.75
2022-10-18T10:16:03.732Z,102344.84
2022-10-18T10:19:29.797Z,102353.03
2022-10-18T10:22:53.182Z,102350.34
2022-10-18T10:26:24.390Z,102343.41
2022-10-18T10:30:21.887Z,102347.78
2022-10-18T10:33:47.843Z,102351.31
2022-10-18T10:37:25.808Z,102343.41
2022-10-18T10:40:51.116Z,102343.41
2022-10-18T10:44:17.047Z,102347.06
2022-10-18T10:47:38.938Z,102335.59
2022-10-18T10:51:08.137Z,102338.28
2022-10-18T10:54:35.431Z,102332.91
2022-10-18T10:57:57.446Z,102336.44
2022-10-18T11:01:22.824Z,102340.00
2022-10-18T11:04:46.083Z,102325.69
2022-10-18T11:08:12.272Z,102325.69
2022-10-18T11:11:40.630Z,102323.84
2022-10-18T11:15:18.456Z,102323.00
2022-10-18T11:18:40.959Z,102322.16
2022-10-18T11:22:07.681Z,102313.09
2022-10-18T11:25:58.853Z,102319.72
2022-10-18T11:29:40.518Z,102320.72
2022-10-18T11:33:13.907Z,102309.97
2022-10-18T11:36:50.380Z,102314.47
2022-10-18T11:40:42.518Z,102303.59
2022-10-18T11:44:20.181Z,102286.47
2022-10-18T11:48:01.697Z,102269.34
2022-10-18T11:51:34.298Z,102271.06
2022-10-18T11:55:30.307Z,102280.69
2022-10-18T11:59:10.991Z,102277.00
2022-10-18T12:02:49.081Z,102268.09
2022-10-18T12:06:17.662Z,102268.81
2022-10-18T12:09:44.411Z,102260.63
2022-10-18T12:13:09.562Z,102258.63
2022-10-18T12:16:51.073Z,102263.03
2022-10-18T12:20:20.567Z,102251.88
2022-10-18T12:23:48.286Z,102264.34
2022-10-18T12:27:14.582Z,102244.41
2022-10-18T12:30:43.640Z,102254.19
2022-10-18T12:34:29.159Z,102253.19
2022-10-18T12:38:14.092Z,102256.47
2022-10-18T12:41:37.225Z,102256.47
2022-10-18T12:45:03.823Z,102252.34
2022-10-18T12:48:38.781Z,102253.31
2022-10-18T12:52:04.797Z,102252.34
2022-10-18T12:55:37.790Z,102252.59
2022-10-18T12:59:54.802Z,102248.22
2022-10-18T13:03:39.232Z,102248.81
2022-10-18T13:07:21.668Z,102256.59
2022-10-18T13:10:43.276Z,102254.47
2022-10-18T13:14:44.041Z,102255.19
2022-10-18T13:18:24.295Z,102257.88
2022-10-18T13:22:16.021Z,102250.69
2022-10-18T13:25:52.513Z,102249.97
2022-10-18T13:29:30.330Z,102250.81
2022-10-18T13:33:00.312Z,102249.38
2022-10-18T13:36:25.789Z,102246.56
2022-10-18T13:55:27.154Z,102244.16
2022-10-18T13:59:14.989Z,102255.44
2022-10-18T14:03:44.026Z,102264.34
2022-10-18T14:07:03.065Z,102273.84
2022-10-18T14:11:00.929Z,102262.78
2022-10-18T14:14:38.115Z,102267.31
2022-10-18T14:18:05.880Z,102269.00
2022-10-18T14:21:36.061Z,102280.91
2022-10-18T14:24:58.361Z,102281.75
2022-10-18T14:28:31.487Z,102275.19
2022-10-18T14:31:58.907Z,102266.41
2022-10-18T14:35:37.898Z,102274.59
2022-10-18T14:39:01.813Z,102264.81
2022-10-18T14:42:25.502Z,102268.66
2022-10-18T14:45:48.715Z,102271.44
2022-10-18T14:49:12.551Z,102276.00
2022-10-18T14:52:35.901Z,102288.22
2022-10-18T14:56:01.755Z,102284.09
2022-10-18T14:59:25.585Z,102285.94
2022-10-18T15:02:48.379Z,102289.63
2022-10-18T15:06:20.205Z,102278.97
2022-10-18T15:09:42.997Z,102279.13
2022-10-18T15:13:10.102Z,102272.78
2022-10-18T15:16:33.971Z,102273.59
2022-10-18T15:20:01.945Z,102269.22
2022-10-18T15:23:31.172Z,102264.81
2022-10-18T15:26:55.175Z,102272.16
2022-10-18T15:30:20.833Z,102280.50
2022-10-18T15:33:42.366Z,102277.34
2022-10-18T15:37:17.567Z,102274.91
2022-10-18T15:40:40.198Z,102268.09
2022-10-18T15:44:13.159Z,102274.84
2022-10-18T15:47:35.978Z,102279.81
2022-10-18T15:51:01.881Z,102274.97
2022-10-18T15:54:33.234Z,102271.97
2022-10-18T15:57:54.913Z,102268.94
2022-10-18T16:01:18.754Z,102276.50
2022-10-18T16:04:40.163Z,102281.53
2022-10-18T16:08:01.527Z,102290.19
2022-10-18T16:11:26.197Z,102291.81
2022-10-18T16:14:47.970Z,102294.16
2022-10-18T16:18:12.750Z,102306.22
2022-10-18T16:21:35.896Z,102305.88
2022-10-18T16:24:57.672Z,102301.94
2022-10-18T16:28:23.074Z,102312.34
2022-10-18T16:31:46.572Z,102311.97
2022-10-18T16:35:08.842Z,102319.63
2022-10-18T16:38:34.259Z,102311.25
2022-10-18T16:41:56.504Z,102307.31
2022-10-18T16:45:19.593Z,102308.72
2022-10-18T16:48:41.180Z,102318.88
2022-10-18T16:52:02.471Z,102327.25
2022-10-18T16:55:25.024Z,102325.69
2022-10-18T16:58:47.611Z,102322.47
2022-10-18T17:02:12.061Z,102324.78
2022-10-18T17:05:33.795Z,102332.34
2022-10-18T17:08:56.502Z,102330.22
2022-10-18T17:12:17.774Z,102326.19
2022-10-18T17:15:41.036Z,102323.00
2022-10-18T17:19:06.059Z,102323.56
2022-10-18T17:22:27.541Z,102332.94
2022-10-18T17:26:04.747Z,102335.31
2022-10-18T17:29:30.211Z,102334.94
2022-10-18T17:32:51.529Z,102335.41
2022-10-18T17:36:14.426Z,102337.66
2022-10-18T17:39:36.827Z,102338.22
2022-10-18T17:42:58.997Z,102346.63
2022-10-18T17:46:21.210Z,102344.25
2022-10-18T17:49:44.880Z,102349.09
2022-10-18T17:53:08.208Z,102346.97
2022-10-18T17:56:33.368Z,102353.75
2022-10-18T17:59:56.265Z,102342.69
2022-10-18T18:03:18.225Z,102357.50
2022-10-18T18:06:41.353Z,102359.00
2022-10-18T18:10:05.092Z,102365.63
2022-10-18T18:13:26.589Z,102359.88
2022-10-18T18:16:48.722Z,102361.97
2022-10-18T18:20:11.176Z,102357.94
2022-10-18T18:23:32.624Z,102355.56
2022-10-18T18:26:56.792Z,102358.47
2022-10-18T18:30:18.499Z,102356.09
2022-10-18T18:33:40.185Z,102366.38
2022-10-18T18:37:01.686Z,102367.75
2022-10-18T18:40:23.849Z,102372.44
2022-10-18T18:44:07.325Z,102375.44
2022-10-18T18:47:35.295Z,102375.75
2022-10-18T18:50:56.775Z,102367.94
2022-10-18T18:54:18.916Z,102368.91
2022-10-18T18:57:42.085Z,102369.00
2022-10-18T19:01:08.389Z,102363.88
2022-10-18T19:04:30.138Z,102367.59
2022-10-18T19:07:54.268Z,102368.75
2022-10-18T19:11:18.706Z,102363.63
2022-10-18T19:14:40.204Z,102365.88
2022-10-18T19:18:08.678Z,102371.50
2022-10-18T19:21:37.700Z,102374.59
2022-10-18T19:24:59.663Z,102379.06
2022-10-18T19:28:44.626Z,102372.13
2022-10-18T19:32:09.902Z,102371.16
2022-10-18T19:35:33.124Z,102374.88
2022-10-18T19:39:01.045Z,102378.50
2022-10-18T19:42:26.237Z,102387.59
2022-10-18T19:45:52.468Z,102382.63
2022-10-18T19:49:28.656Z,102384.84
2022-10-18T19:52:53.451Z,102386.84
2022-10-18T19:56:19.562Z,102393.25
2022-10-18T20:03:08.428Z,102395.94
2022-10-18T20:06:30.254Z,102409.34
2022-10-18T20:09:58.715Z,102410.59
2022-10-18T20:13:20.977Z,102409.00
2022-10-18T20:16:42.507Z,102409.09
2022-10-18T20:20:05.787Z,102414.34
2022-10-18T20:23:27.206Z,102419.69
2022-10-18T20:26:50.426Z,102412.44
2022-10-18T20:30:12.534Z,102412.44
2022-10-18T20:33:36.975Z,102410.50
2022-10-18T20:36:58.487Z,102413.06
2022-10-18T20:40:24.504Z,102407.72
2022-10-18T20:43:51.961Z,102405.94
2022-10-18T20:47:13.815Z,102408.59
2022-10-18T20:50:36.238Z,102412.22
2022-10-18T20:53:57.770Z,102415.66
2022-10-18T20:57:19.546Z,102418.22
2022-10-18T21:00:42.479Z,102404.03
2022-10-18T21:04:07.459Z,102400.31
2022-10-18T21:07:30.825Z,102387.59
2022-10-18T21:10:52.653Z,102385.88
2022-10-18T21:14:15.903Z,102398.28
2022-10-18T21:17:38.974Z,102383.22
2022-10-18T21:21:08.752Z,102383.13
2022-10-18T21:24:30.996Z,102389.25
2022-10-18T21:27:52.808Z,102402.50
2022-10-18T21:31:19.451Z,102397.16
2022-10-18T21:34:44.160Z,102403.25
2022-10-18T21:38:06.455Z,102398.66
2022-10-18T21:41:28.288Z,102390.56
2022-10-18T21:44:50.125Z,102382.56
2022-10-18T21:48:14.910Z,102379.88
2022-10-18T21:51:38.756Z,102378.94
2022-10-18T21:55:00.593Z,102376.34
2022-10-18T21:58:24.598Z,102373.47
2022-10-18T22:01:46.310Z,102365.44
2022-10-18T22:05:12.108Z,102375.97
2022-10-18T22:08:38.604Z,102378.63
2022-10-18T22:12:02.776Z,102376.91
2022-10-18T22:15:24.253Z,102373.47
2022-10-18T22:18:48.090Z,102387.78
2022-10-18T22:22:15.359Z,102377.09
2022-10-18T22:25:38.774Z,102377.09
2022-10-18T22:29:02.172Z,102365.56
2022-10-18T22:32:23.823Z,102371.75
2022-10-18T22:35:50.218Z,102368.13
2022-10-18T22:39:13.133Z,102367.16
2022-10-18T22:42:36.056Z,102361.81
2022-10-18T22:46:15.724Z,102356.41
2022-10-18T22:49:37.304Z,102359.06
2022-10-18T22:52:58.451Z,102360.78
2022-10-18T22:56:23.234Z,102358.97
2022-10-18T22:59:45.765Z,102360.78
2022-10-18T23:03:07.393Z,102359.81
2022-10-18T23:06:31.268Z,102355.34
2022-10-18T23:09:52.533Z,102358.03
2022-10-18T23:13:15.424Z,102363.38
2022-10-18T23:16:38.391Z,102363.25
2022-10-18T23:19:59.560Z,102356.19
2022-10-18T23:23:21.380Z,102356.31
2022-10-18T23:26:43.147Z,102358.84
2022-10-18T23:30:05.658Z,102362.41
2022-10-18T23:33:28.928Z,102354.47
2022-10-18T23:36:50.199Z,102358.84
2022-10-18T23:40:12.640Z,102350.97
2022-10-18T23:43:34.484Z,102345.50
2022-10-18T23:46:55.748Z,102356.31
2022-10-18T23:50:18.784Z,102343.78
2022-10-18T23:53:40.325Z,102348.19
2022-10-18T23:57:02.137Z,102350.84
